Time;durP1;ratioP1;P1;durP2;ratioP2;P2;SDS_P1;SDS_P2;PMS_P1;PMS_P2;Temp;Humidity;BMP_temperature;BMP_pressure;BME280_temperature;BME280_humidity;BME280_pressure;Samples;Min_cycle;Max_cycle;Signal;HPM_P1;HPM_P2
2021/07/29 00:01:24;;;;;;;6.57;3.88;;;;;;;;;;6184013;28;20050;-79
2021/07/29 00:04:25;;;;;;;7.72;4.55;;;;;;;;;;6193098;28;20154;-79
2021/07/29 00:07:27;;;;;;;8.05;4.20;;;;;;;;;;6187570;28;20064;-79
2021/07/29 00:10:29;;;;;;;5.35;3.97;;;;;;;;;;6184628;28;20333;-81
2021/07/29 00:13:31;;;;;;;7.10;5.00;;;;;;;;;;6179540;28;20058;-80
2021/07/29 00:16:42;;;;;;;7.22;4.90;;;;;;;;;;6177780;28;20138;-83
2021/07/29 00:19:43;;;;;;;9.30;4.63;;;;;;;;;;6187328;28;20065;-80
2021/07/29 00:22:48;;;;;;;7.15;4.40;;;;;;;;;;6177672;28;20038;-80
2021/07/29 00:25:50;;;;;;;7.32;4.38;;;;;;;;;;6174316;28;20099;-79
2021/07/29 00:28:51;;;;;;;8.57;4.60;;;;;;;;;;6186666;28;20054;-80
2021/07/29 00:31:54;;;;;;;5.57;4.60;;;;;;;;;;6185664;28;20129;-80
2021/07/29 00:34:56;;;;;;;6.15;4.40;;;;;;;;;;6187705;28;20144;-84
2021/07/29 00:38:01;;;;;;;9.07;4.43;;;;;;;;;;6185545;28;20081;-79
2021/07/29 00:41:02;;;;;;;6.57;4.78;;;;;;;;;;6178015;28;20039;-80
2021/07/29 00:44:06;;;;;;;5.82;4.18;;;;;;;;;;6193130;28;20473;-80
2021/07/29 00:47:10;;;;;;;6.20;4.38;;;;;;;;;;6182720;28;20054;-81
2021/07/29 00:50:14;;;;;;;6.65;4.05;;;;;;;;;;6191598;28;20122;-84
2021/07/29 00:53:16;;;;;;;6.32;4.47;;;;;;;;;;6182235;28;20042;-79
2021/07/29 00:56:18;;;;;;;7.50;4.20;;;;;;;;;;6191982;28;20133;-80
2021/07/29 00:59:19;;;;;;;8.95;4.35;;;;;;;;;;6199114;28;20246;-83
2021/07/29 01:02:23;;;;;;;6.28;4.25;;;;;;;;;;6182702;28;20124;-80
2021/07/29 01:05:24;;;;;;;5.82;4.40;;;;;;;;;;6185451;28;20327;-82
2021/07/29 01:08:26;;;;;;;6.22;4.80;;;;;;;;;;6192224;28;20525;-80
2021/07/29 01:11:28;;;;;;;7.07;4.43;;;;;;;;;;6186898;28;20276;-80
2021/07/29 01:14:29;;;;;;;7.55;4.45;;;;;;;;;;6194605;28;20150;-81
2021/07/29 01:17:33;;;;;;;6.95;4.47;;;;;;;;;;6181104;28;20062;-79
2021/07/29 01:20:36;;;;;;;;;;;;;;;;;;6185160;28;20066;-82
2021/07/29 01:23:37;;;;;;;6.05;4.75;;;;;;;;;;6185620;28;19925;-77
2021/07/29 01:26:39;;;;;;;6.93;4.47;;;;;;;;;;6187393;28;20193;-78
2021/07/29 01:29:40;;;;;;;9.00;4.75;;;;;;;;;;6191142;28;20046;-78
2021/07/29 01:32:42;;;;;;;5.68;4.70;;;;;;;;;;6174458;28;20050;-83
2021/07/29 01:35:45;;;;;;;10.70;5.25;;;;;;;;;;6192166;28;20073;-78
2021/07/29 01:38:47;;;;;;;7.47;4.78;;;;;;;;;;6195281;28;20038;-78
2021/07/29 01:41:48;;;;;;;10.02;5.20;;;;;;;;;;6192856;28;20053;-78
2021/07/29 01:44:50;;;;;;;7.97;4.60;;;;;;;;;;6200045;28;20192;-78
2021/07/29 01:47:51;;;;;;;7.43;4.85;;;;;;;;;;6191086;28;20086;-79
2021/07/29 01:50:55;;;;;;;5.82;4.60;;;;;;;;;;6193927;28;20141;-78
2021/07/29 01:53:56;;;;;;;6.00;4.82;;;;;;;;;;6190682;28;20132;-78
2021/07/29 01:56:58;;;;;;;9.13;5.30;;;;;;;;;;6192060;28;20046;-78
2021/07/29 01:59:59;;;;;;;7.45;5.15;;;;;;;;;;6195420;28;20100;-78
2021/07/29 02:03:02;;;;;;;6.97;4.82;;;;;;;;;;6188441;28;20042;-77
2021/07/29 02:06:05;;;;;;;5.65;4.78;;;;;;;;;;6189893;28;20105;-78
2021/07/29 02:09:06;;;;;;;6.47;4.70;;;;;;;;;;6173333;28;20102;-79
2021/07/29 02:12:08;;;;;;;8.18;4.78;;;;;;;;;;6185274;28;20137;-77
2021/07/29 02:15:11;;;;;;;6.40;4.88;;;;;;;;;;6195641;28;20050;-80
2021/07/29 02:18:12;;;;;;;6.38;5.25;;;;;;;;;;6191971;28;20491;-78
2021/07/29 02:21:15;;;;;;;6.57;4.75;;;;;;;;;;6191377;28;20132;-78
2021/07/29 02:24:17;;;;;;;11.10;5.10;;;;;;;;;;6187530;28;20170;-78
2021/07/29 02:27:19;;;;;;;7.72;4.95;;;;;;;;;;6190960;28;20144;-78
2021/07/29 02:30:20;;;;;;;9.57;5.85;;;;;;;;;;6189899;28;20050;-78
2021/07/29 02:33:22;;;;;;;9.25;4.88;;;;;;;;;;6192370;28;20078;-79
2021/07/29 02:36:25;;;;;;;6.38;4.70;;;;;;;;;;6183865;28;20129;-84
2021/07/29 02:39:26;;;;;;;6.72;4.65;;;;;;;;;;6194165;28;20065;-80
2021/07/29 02:42:28;;;;;;;9.95;4.80;;;;;;;;;;6190347;28;20381;-78
2021/07/29 02:45:30;;;;;;;7.35;5.00;;;;;;;;;;6186675;28;20206;-81
2021/07/29 02:48:31;;;;;;;7.50;4.82;;;;;;;;;;6191409;28;20201;-78
2021/07/29 02:51:34;;;;;;;7.00;4.82;;;;;;;;;;6156968;28;20137;-78
2021/07/29 02:54:36;;;;;;;5.45;4.18;;;;;;;;;;6191239;28;20120;-77
2021/07/29 02:57:37;;;;;;;7.45;4.68;;;;;;;;;;6184261;28;20046;-78
2021/07/29 03:00:39;;;;;;;7.95;5.20;;;;;;;;;;6187453;28;20252;-78
2021/07/29 03:03:40;;;;;;;7.07;5.25;;;;;;;;;;6192523;28;20130;-79
2021/07/29 03:06:43;;;;;;;6.30;4.68;;;;;;;;;;6185000;28;20066;-78
2021/07/29 03:09:45;;;;;;;6.90;5.03;;;;;;;;;;6193414;28;20089;-78
2021/07/29 03:12:46;;;;;;;6.88;5.53;;;;;;;;;;6178015;28;20196;-78
2021/07/29 03:15:48;;;;;;;5.53;4.28;;;;;;;;;;6184156;28;20502;-78
2021/07/29 03:18:50;;;;;;;7.00;4.57;;;;;;;;;;6192039;28;20104;-80
2021/07/29 03:21:52;;;;;;;7.63;5.57;;;;;;;;;;6187349;28;20042;-78
2021/07/29 03:24:54;;;;;;;7.25;4.80;;;;;;;;;;6194450;28;20038;-78
2021/07/29 03:27:55;;;;;;;4.95;4.47;;;;;;;;;;6184038;28;20058;-79
2021/07/29 03:30:57;;;;;;;7.35;4.97;;;;;;;;;;6179796;28;20054;-78
2021/07/29 03:33:59;;;;;;;8.23;5.35;;;;;;;;;;6192897;28;20105;-80
2021/07/29 03:37:02;;;;;;;7.22;4.70;;;;;;;;;;6192287;28;20117;-80
2021/07/29 03:40:07;;;;;;;6.03;4.50;;;;;;;;;;6194217;28;20193;-79
2021/07/29 03:43:09;;;;;;;8.40;4.90;;;;;;;;;;6187732;28;20050;-77
2021/07/29 03:46:10;;;;;;;7.88;4.78;;;;;;;;;;6183919;28;20078;-82
2021/07/29 03:49:12;;;;;;;9.48;5.07;;;;;;;;;;6191472;28;20413;-77
2021/07/29 03:52:15;;;;;;;10.73;5.53;;;;;;;;;;6180369;28;20165;-78
2021/07/29 03:55:17;;;;;;;6.20;4.68;;;;;;;;;;6186535;28;20079;-82
2021/07/29 03:58:18;;;;;;;5.38;4.45;;;;;;;;;;6185228;28;20050;-79
2021/07/29 04:01:21;;;;;;;7.90;5.05;;;;;;;;;;6186199;28;20454;-77
2021/07/29 04:04:22;;;;;;;7.20;4.40;;;;;;;;;;6188152;28;20062;-78
2021/07/29 04:07:25;;;;;;;8.13;5.03;;;;;;;;;;6184086;28;20050;-83
2021/07/29 04:10:27;;;;;;;7.03;4.68;;;;;;;;;;6181661;28;20838;-79
2021/07/29 04:13:28;;;;;;;6.15;4.78;;;;;;;;;;6188679;28;20066;-78
2021/07/29 04:16:30;;;;;;;6.30;4.93;;;;;;;;;;6168562;28;20192;-82
2021/07/29 04:19:33;;;;;;;6.43;4.82;;;;;;;;;;6190742;28;20129;-80
2021/07/29 04:22:36;;;;;;;7.88;4.65;;;;;;;;;;6182976;28;20050;-78
2021/07/29 04:25:37;;;;;;;7.10;4.80;;;;;;;;;;6186775;28;20050;-79
2021/07/29 04:28:39;;;;;;;6.95;4.55;;;;;;;;;;6189104;28;20112;-78
2021/07/29 04:31:41;;;;;;;9.88;4.97;;;;;;;;;;6185408;28;20133;-78
2021/07/29 04:34:42;;;;;;;7.65;4.43;;;;;;;;;;6189795;28;20125;-80
2021/07/29 04:37:45;;;;;;;7.75;5.30;;;;;;;;;;6185384;28;20160;-79
2021/07/29 04:40:47;;;;;;;4.93;4.32;;;;;;;;;;6188893;28;20157;-79
2021/07/29 04:43:48;;;;;;;6.88;4.80;;;;;;;;;;6190378;28;20099;-79
2021/07/29 04:46:50;;;;;;;6.30;4.57;;;;;;;;;;6185714;28;20046;-80
2021/07/29 04:49:51;;;;;;;6.57;4.95;;;;;;;;;;6190929;28;20181;-79
2021/07/29 04:52:54;;;;;;;8.90;5.38;;;;;;;;;;6186584;28;20448;-79
2021/07/29 04:55:56;;;;;;;8.15;5.15;;;;;;;;;;6186708;28;20548;-78
2021/07/29 04:58:57;;;;;;;7.03;4.72;;;;;;;;;;6194437;28;20135;-81
2021/07/29 05:01:59;;;;;;;8.70;4.80;;;;;;;;;;6172444;28;20383;-78
2021/07/29 05:05:01;;;;;;;4.70;4.20;;;;;;;;;;6187799;28;20046;-80
2021/07/29 05:08:04;;;;;;;9.60;4.43;;;;;;;;;;6189410;28;20050;-79
2021/07/29 05:11:06;;;;;;;7.07;4.88;;;;;;;;;;6188080;28;20799;-78
2021/07/29 05:14:07;;;;;;;6.30;4.20;;;;;;;;;;6192401;28;20280;-79
2021/07/29 05:17:09;;;;;;;8.80;4.43;;;;;;;;;;6189825;28;20066;-79
2021/07/29 05:20:11;;;;;;;12.57;4.40;;;;;;;;;;6181736;28;20076;-77
2021/07/29 05:23:14;;;;;;;10.85;4.93;;;;;;;;;;6184098;28;20487;-77
2021/07/29 05:26:16;;;;;;;7.47;4.35;;;;;;;;;;6183345;28;20046;-78
2021/07/29 05:29:18;;;;;;;5.27;4.10;;;;;;;;;;6188463;28;20058;-77
2021/07/29 05:32:19;;;;;;;6.85;4.18;;;;;;;;;;6177092;28;20078;-81
2021/07/29 05:35:21;;;;;;;11.65;4.28;;;;;;;;;;6183846;28;20064;-83
2021/07/29 05:38:24;;;;;;;10.52;4.95;;;;;;;;;;6190174;28;20193;-78
2021/07/29 05:41:26;;;;;;;7.55;4.45;;;;;;;;;;6188160;28;20113;-77
2021/07/29 05:44:27;;;;;;;7.20;4.32;;;;;;;;;;6193041;28;20046;-78
2021/07/29 05:47:29;;;;;;;7.43;4.63;;;;;;;;;;6180005;28;20034;-79
2021/07/29 05:50:31;;;;;;;6.78;4.55;;;;;;;;;;6183382;28;20046;-79
2021/07/29 05:53:34;;;;;;;9.93;4.47;;;;;;;;;;6189374;28;20122;-79
2021/07/29 05:56:35;;;;;;;6.65;4.32;;;;;;;;;;6182576;28;20117;-79
2021/07/29 05:59:37;;;;;;;8.05;4.85;;;;;;;;;;6195453;28;20128;-84
2021/07/29 06:02:39;;;;;;;10.07;5.28;;;;;;;;;;6161600;28;20107;-81
2021/07/29 06:05:40;;;;;;;6.32;4.30;;;;;;;;;;6188286;28;20433;-84
2021/07/29 06:08:44;;;;;;;6.97;4.25;;;;;;;;;;6193499;28;20555;-78
2021/07/29 06:11:46;;;;;;;7.47;4.10;;;;;;;;;;6184363;28;20061;-79
2021/07/29 06:14:47;;;;;;;7.50;4.53;;;;;;;;;;6187147;28;20074;-80
2021/07/29 06:17:54;;;;;;;9.82;4.68;;;;;;;;;;6176259;28;20194;-84
2021/07/29 06:20:56;;;;;;;6.78;4.57;;;;;;;;;;6178754;28;20121;-80
2021/07/29 06:23:59;;;;;;;9.55;4.93;;;;;;;;;;6181705;28;20059;-79
2021/07/29 06:27:01;;;;;;;7.55;4.63;;;;;;;;;;6190456;28;20055;-78
2021/07/29 06:30:03;;;;;;;9.27;5.25;;;;;;;;;;6192600;28;20157;-79
2021/07/29 06:33:04;;;;;;;7.90;5.10;;;;;;;;;;6182561;28;20054;-82
2021/07/29 06:36:06;;;;;;;8.70;5.00;;;;;;;;;;6187524;28;20038;-78
2021/07/29 06:39:09;;;;;;;6.70;5.22;;;;;;;;;;6192529;28;20335;-83
2021/07/29 06:42:10;;;;;;;9.98;5.30;;;;;;;;;;6184863;28;20120;-80
2021/07/29 06:45:12;;;;;;;7.10;5.05;;;;;;;;;;6186945;28;20050;-84
2021/07/29 06:48:16;;;;;;;8.63;5.53;;;;;;;;;;6182614;28;20180;-78
2021/07/29 06:51:18;;;;;;;7.32;4.85;;;;;;;;;;6185400;28;20054;-79
2021/07/29 06:54:20;;;;;;;8.15;5.35;;;;;;;;;;6193200;28;20102;-78
2021/07/29 06:57:22;;;;;;;8.70;4.60;;;;;;;;;;6183285;28;20132;-79
2021/07/29 07:00:24;;;;;;;11.85;5.72;;;;;;;;;;6181404;28;20427;-81
2021/07/29 07:03:26;;;;;;;8.35;5.43;;;;;;;;;;6188838;28;20085;-79
2021/07/29 07:06:27;;;;;;;6.27;4.90;;;;;;;;;;6185099;28;20055;-79
2021/07/29 07:12:51;;;;;;;9.23;4.78;;;;;;;;;;6670664;23;20116;-79
2021/07/29 07:15:52;;;;;;;9.82;5.68;;;;;;;;;;6177680;28;20137;-83
2021/07/29 07:18:54;;;;;;;8.88;5.85;;;;;;;;;;6199205;28;20129;-81
2021/07/29 07:21:55;;;;;;;10.57;5.80;;;;;;;;;;6456041;23;20102;-70
2021/07/29 07:24:57;;;;;;;10.27;6.45;;;;;;;;;;6159513;28;20046;-71
2021/07/29 07:28:00;;;;;;;12.80;6.50;;;;;;;;;;6147531;28;20190;-74
2021/07/29 07:31:01;;;;;;;7.90;5.63;;;;;;;;;;6154772;28;20497;-73
2021/07/29 07:34:03;;;;;;;9.30;5.18;;;;;;;;;;6149995;28;20110;-71
2021/07/29 07:37:04;;;;;;;10.10;6.22;;;;;;;;;;6148683;28;20174;-70
2021/07/29 07:40:07;;;;;;;11.50;7.82;;;;;;;;;;6155809;28;20057;-72
2021/07/29 07:43:10;;;;;;;14.52;7.57;;;;;;;;;;6152381;28;20483;-70
2021/07/29 07:46:12;;;;;;;;;;;;;;;;;;6141534;28;20134;-71
2021/07/29 07:49:13;;;;;;;13.25;8.43;;;;;;;;;;6152903;28;19922;-70
2021/07/29 07:52:15;;;;;;;11.15;8.45;;;;;;;;;;6143468;28;20134;-70
2021/07/29 07:55:16;;;;;;;11.35;8.55;;;;;;;;;;6153898;28;20097;-72
2021/07/29 07:58:20;;;;;;;10.10;7.97;;;;;;;;;;6157514;28;20138;-71
2021/07/29 08:01:21;;;;;;;11.48;7.93;;;;;;;;;;6144285;28;20051;-71
2021/07/29 08:04:23;;;;;;;10.77;8.02;;;;;;;;;;6155000;28;20047;-70
2021/07/29 08:07:25;;;;;;;8.80;7.68;;;;;;;;;;6148646;28;20070;-74
2021/07/29 08:10:28;;;;;;;11.90;7.72;;;;;;;;;;6156072;28;20821;-70
2021/07/29 08:13:30;;;;;;;13.25;8.02;;;;;;;;;;6172156;28;20051;-70
2021/07/29 08:16:32;;;;;;;7.55;5.85;;;;;;;;;;6153665;28;20790;-74
2021/07/29 08:19:34;;;;;;;8.10;6.00;;;;;;;;;;6161851;28;20039;-70
2021/07/29 08:22:35;;;;;;;10.57;6.60;;;;;;;;;;6157572;28;20583;-72
2021/07/29 08:25:37;;;;;;;9.82;5.95;;;;;;;;;;6158960;28;20058;-71
2021/07/29 08:28:41;;;;;;;8.25;5.82;;;;;;;;;;6159717;28;20051;-71
2021/07/29 08:31:43;;;;;;;7.95;6.22;;;;;;;;;;6145294;28;20059;-70
2021/07/29 08:34:44;;;;;;;11.60;5.60;;;;;;;;;;6150043;28;20047;-71
2021/07/29 08:37:49;;;;;;;7.37;6.13;;;;;;;;;;6143392;28;20058;-70
2021/07/29 08:40:53;;;;;;;10.77;7.15;;;;;;;;;;6143807;28;20129;-73
2021/07/29 08:43:56;;;;;;;10.20;6.50;;;;;;;;;;6153430;28;20129;-71
2021/07/29 08:46:58;;;;;;;11.88;6.45;;;;;;;;;;6143710;28;20059;-70
2021/07/29 08:50:04;;;;;;;11.32;7.03;;;;;;;;;;6148672;28;20106;-73
2021/07/29 08:53:06;;;;;;;9.95;6.88;;;;;;;;;;6143173;28;20047;-70
2021/07/29 08:56:07;;;;;;;7.38;6.20;;;;;;;;;;6174800;28;22012;-70
2021/07/29 08:59:12;;;;;;;8.35;5.97;;;;;;;;;;6177710;28;20379;-70
2021/07/29 09:02:22;;;;;;;11.40;6.15;;;;;;;;;;6164928;28;20077;-73
2021/07/29 09:05:24;;;;;;;14.30;6.95;;;;;;;;;;6173964;28;20145;-74
2021/07/29 09:08:25;;;;;;;12.45;8.13;;;;;;;;;;6175729;28;20082;-71
2021/07/29 09:11:29;;;;;;;10.18;7.65;;;;;;;;;;6175917;28;20145;-70
2021/07/29 09:14:32;;;;;;;10.77;6.43;;;;;;;;;;6184423;28;20053;-69
2021/07/29 09:17:44;;;;;;;11.60;7.18;;;;;;;;;;6170773;28;20117;-69
2021/07/29 09:20:46;;;;;;;10.73;7.07;;;;;;;;;;6171827;28;20055;-69
2021/07/29 09:24:03;;;;;;;10.88;7.00;;;;;;;;;;6179453;28;20133;-68
2021/07/29 09:27:04;;;;;;;9.68;7.05;;;;;;;;;;6179593;28;20050;-68
2021/07/29 09:30:11;;;;;;;11.38;7.10;;;;;;;;;;6181076;28;20433;-69
2021/07/29 09:33:13;;;;;;;8.43;6.10;;;;;;;;;;6175663;28;20177;-68
2021/07/29 09:36:14;;;;;;;10.65;6.32;;;;;;;;;;6176708;28;20244;-68
2021/07/29 09:39:18;;;;;;;10.50;7.47;;;;;;;;;;6181123;28;20120;-70
2021/07/29 09:42:21;;;;;;;8.65;6.55;;;;;;;;;;6179171;28;20125;-69
2021/07/29 09:45:31;;;;;;;9.90;6.65;;;;;;;;;;6173752;28;20209;-73
2021/07/29 09:48:33;;;;;;;10.35;6.80;;;;;;;;;;6179925;28;20824;-69
2021/07/29 09:51:36;;;;;;;11.23;7.20;;;;;;;;;;6173453;28;20043;-69
2021/07/29 09:54:39;;;;;;;8.85;6.90;;;;;;;;;;6176909;28;20129;-70
2021/07/29 09:57:40;;;;;;;11.20;6.30;;;;;;;;;;6172226;28;20203;-69
2021/07/29 10:00:43;;;;;;;13.52;6.78;;;;;;;;;;6168919;28;20045;-72
2021/07/29 10:03:48;;;;;;;7.78;5.90;;;;;;;;;;6176780;28;20453;-69
2021/07/29 10:06:51;;;;;;;9.88;6.60;;;;;;;;;;6149568;28;20046;-69
2021/07/29 10:09:53;;;;;;;7.82;6.82;;;;;;;;;;6180163;28;20057;-69
2021/07/29 10:12:55;;;;;;;12.18;7.55;;;;;;;;;;6174122;28;20398;-68
2021/07/29 10:15:58;;;;;;;8.82;6.63;;;;;;;;;;6168148;28;20133;-70
2021/07/29 10:19:07;;;;;;;13.13;6.20;;;;;;;;;;6180143;28;20536;-70
2021/07/29 10:22:22;;;;;;;9.00;6.30;;;;;;;;;;6171932;28;20057;-68
2021/07/29 10:25:23;;;;;;;8.43;5.90;;;;;;;;;;6170009;28;20137;-70
2021/07/29 10:28:26;;;;;;;9.93;6.60;;;;;;;;;;6178235;28;20049;-70
2021/07/29 10:31:48;;;;;;;10.38;6.20;;;;;;;;;;6167456;28;20306;-67
2021/07/29 10:34:52;;;;;;;11.77;6.10;;;;;;;;;;6175914;28;20097;-70
2021/07/29 10:37:54;;;;;;;13.00;6.40;;;;;;;;;;6172328;28;20058;-70
2021/07/29 10:40:55;;;;;;;;;;;;;;;;;;6171581;28;20061;-70
2021/07/29 10:43:57;;;;;;;12.75;6.95;;;;;;;;;;6184049;28;20020;-72
2021/07/29 10:47:05;;;;;;;8.50;5.65;;;;;;;;;;6168678;28;20457;-70
2021/07/29 10:50:14;;;;;;;11.18;6.15;;;;;;;;;;6171780;28;20046;-74
2021/07/29 10:53:16;;;;;;;8.75;5.63;;;;;;;;;;6179961;28;20169;-69
2021/07/29 10:56:19;;;;;;;10.55;5.85;;;;;;;;;;6180276;28;20146;-68
2021/07/29 10:59:21;;;;;;;10.05;5.63;;;;;;;;;;6193799;28;20042;-68
2021/07/29 11:02:39;;;;;;;10.68;6.18;;;;;;;;;;6181187;28;20486;-69
2021/07/29 11:05:43;;;;;;;13.15;6.50;;;;;;;;;;6179914;28;20046;-70
2021/07/29 11:08:47;;;;;;;10.45;6.28;;;;;;;;;;6191002;28;20054;-70
2021/07/29 11:11:50;;;;;;;8.88;6.13;;;;;;;;;;6169660;28;20058;-70
2021/07/29 11:14:52;;;;;;;10.38;6.38;;;;;;;;;;6184118;28;20046;-70
2021/07/29 11:17:55;;;;;;;10.95;6.25;;;;;;;;;;6168505;28;20104;-70
2021/07/29 11:20:56;;;;;;;9.40;6.70;;;;;;;;;;6174193;28;20062;-67
2021/07/29 11:23:58;;;;;;;7.90;6.28;;;;;;;;;;6175912;28;20129;-68
2021/07/29 11:27:01;;;;;;;11.65;6.57;;;;;;;;;;6174543;28;20055;-68
2021/07/29 11:30:04;;;;;;;9.73;5.70;;;;;;;;;;6181517;28;20129;-69
2021/07/29 11:33:07;;;;;;;10.35;5.30;;;;;;;;;;6166965;28;20035;-70
2021/07/29 11:36:09;;;;;;;8.93;6.10;;;;;;;;;;6167183;28;20054;-68
2021/07/29 11:39:11;;;;;;;8.18;6.10;;;;;;;;;;6177206;28;20060;-70
2021/07/29 11:42:13;;;;;;;9.60;6.60;;;;;;;;;;6175124;28;20042;-69
2021/07/29 11:45:25;;;;;;;8.30;6.10;;;;;;;;;;6176986;28;20078;-72
2021/07/29 11:48:28;;;;;;;7.60;5.55;;;;;;;;;;6172780;28;20526;-69
2021/07/29 11:51:29;;;;;;;10.93;6.00;;;;;;;;;;6170010;28;20363;-69
2021/07/29 11:54:32;;;;;;;9.55;5.90;;;;;;;;;;6173647;28;20050;-69
2021/07/29 11:57:33;;;;;;;9.73;6.25;;;;;;;;;;6172485;28;20093;-69
2021/07/29 12:00:35;;;;;;;11.10;6.97;;;;;;;;;;6170269;28;20051;-69
2021/07/29 12:03:40;;;;;;;11.70;5.75;;;;;;;;;;6173259;28;20042;-69
2021/07/29 12:06:42;;;;;;;10.50;6.20;;;;;;;;;;6166961;28;20047;-72
2021/07/29 12:09:45;;;;;;;9.25;5.70;;;;;;;;;;6173591;28;20050;-68
2021/07/29 12:12:46;;;;;;;8.25;6.63;;;;;;;;;;6173556;28;20043;-68
2021/07/29 12:15:49;;;;;;;13.85;6.30;;;;;;;;;;6168031;28;20145;-68
2021/07/29 12:19:03;;;;;;;10.48;6.35;;;;;;;;;;6183815;28;20043;-68
2021/07/29 12:22:23;;;;;;;9.80;6.25;;;;;;;;;;6184369;28;20068;-68
2021/07/29 12:25:28;;;;;;;13.07;6.50;;;;;;;;;;6180430;28;20070;-72
2021/07/29 12:28:40;;;;;;;9.93;6.43;;;;;;;;;;6188982;28;20065;-71
2021/07/29 12:31:45;;;;;;;8.80;5.70;;;;;;;;;;6174011;28;20046;-68
2021/07/29 12:34:48;;;;;;;8.98;5.68;;;;;;;;;;6174943;28;20050;-69
2021/07/29 12:37:58;;;;;;;9.10;5.70;;;;;;;;;;6170449;28;20121;-71
2021/07/29 12:41:00;;;;;;;8.38;5.38;;;;;;;;;;6170710;28;20108;-69
2021/07/29 12:44:12;;;;;;;10.73;5.78;;;;;;;;;;6175308;28;20405;-69
2021/07/29 12:47:14;;;;;;;8.55;5.93;;;;;;;;;;6165972;28;20097;-71
2021/07/29 12:50:36;;;;;;;7.65;5.47;;;;;;;;;;6176807;28;20181;-70
2021/07/29 12:53:37;;;;;;;9.65;5.47;;;;;;;;;;6174379;28;20589;-68
2021/07/29 12:56:39;;;;;;;7.85;5.18;;;;;;;;;;6170754;28;20089;-69
2021/07/29 12:59:41;;;;;;;8.35;5.40;;;;;;;;;;6177023;28;20573;-69
2021/07/29 13:02:43;;;;;;;7.32;5.35;;;;;;;;;;6165413;28;20050;-69
2021/07/29 13:05:45;;;;;;;8.52;5.68;;;;;;;;;;6170787;28;20042;-70
2021/07/29 13:08:47;;;;;;;9.48;5.25;;;;;;;;;;6178180;28;20188;-68
2021/07/29 13:11:53;;;;;;;6.97;5.32;;;;;;;;;;6173312;28;20410;-69
2021/07/29 13:14:54;;;;;;;8.57;5.45;;;;;;;;;;6174678;28;20042;-68
2021/07/29 13:17:56;;;;;;;8.45;5.55;;;;;;;;;;6167166;28;20156;-69
2021/07/29 13:20:59;;;;;;;6.93;5.60;;;;;;;;;;6167407;28;20054;-72
2021/07/29 13:24:00;;;;;;;9.68;5.90;;;;;;;;;;6175911;28;20496;-69
2021/07/29 13:27:02;;;;;;;;;;;;;;;;;;6173593;28;20054;-68
2021/07/29 13:30:04;;;;;;;9.00;5.30;;;;;;;;;;6180687;28;20012;-68
2021/07/29 13:33:05;;;;;;;9.75;5.20;;;;;;;;;;6175666;28;20592;-69
2021/07/29 13:36:08;;;;;;;8.32;5.78;;;;;;;;;;6167148;28;20153;-69
2021/07/29 13:39:10;;;;;;;7.13;5.18;;;;;;;;;;6185223;28;20034;-70
2021/07/29 13:42:12;;;;;;;7.47;5.10;;;;;;;;;;6177022;28;20081;-70
2021/07/29 13:45:19;;;;;;;7.05;5.15;;;;;;;;;;6179356;28;20435;-72
2021/07/29 13:48:21;;;;;;;8.43;5.65;;;;;;;;;;6172152;28;20046;-72
2021/07/29 13:51:24;;;;;;;9.00;5.40;;;;;;;;;;6176850;28;20526;-69
2021/07/29 13:54:27;;;;;;;8.50;5.70;;;;;;;;;;6181013;28;20446;-70
2021/07/29 13:57:28;;;;;;;8.50;5.10;;;;;;;;;;6177990;28;20054;-69
2021/07/29 14:00:30;;;;;;;9.05;5.32;;;;;;;;;;6173635;28;20069;-72
2021/07/29 14:03:32;;;;;;;10.13;5.25;;;;;;;;;;6176305;28;20046;-69
2021/07/29 14:06:35;;;;;;;8.45;5.60;;;;;;;;;;6173893;28;20168;-68
2021/07/29 14:09:36;;;;;;;8.43;5.15;;;;;;;;;;6184834;28;20051;-69
2021/07/29 14:12:39;;;;;;;7.13;5.82;;;;;;;;;;6175845;28;20050;-69
2021/07/29 14:15:40;;;;;;;7.68;5.30;;;;;;;;;;6176824;28;20193;-69
2021/07/29 14:18:45;;;;;;;8.73;4.97;;;;;;;;;;6171964;28;20089;-69
2021/07/29 14:25:09;;;;;;;5.70;4.43;;;;;;;;;;6179758;28;20042;-71
2021/07/29 14:28:13;;;;;;;6.82;4.60;;;;;;;;;;6176631;28;20050;-70
2021/07/29 14:31:14;;;;;;;9.93;4.90;;;;;;;;;;6171451;28;20064;-68
2021/07/29 14:34:16;;;;;;;6.97;4.90;;;;;;;;;;6178562;28;20050;-69
2021/07/29 14:37:19;;;;;;;10.60;5.20;;;;;;;;;;6174338;28;20082;-69
2021/07/29 14:40:21;;;;;;;7.85;5.05;;;;;;;;;;6174878;28;20190;-71
2021/07/29 14:43:24;;;;;;;10.35;5.47;;;;;;;;;;6177281;28;20814;-68
2021/07/29 14:49:41;;;;;;;6.07;4.97;;;;;;;;;;6157522;28;20060;-68
2021/07/29 14:52:46;;;;;;;9.02;4.75;;;;;;;;;;6171493;28;20284;-70
2021/07/29 16:09:09;;;;;;;7.43;5.20;;;;;;;;;;6179613;28;20114;-68
2021/07/29 16:12:11;;;;;;;6.32;4.38;;;;;;;;;;6177780;28;20129;-69
2021/07/29 16:15:14;;;;;;;6.10;4.80;;;;;;;;;;6180378;28;20117;-73
2021/07/29 16:18:16;;;;;;;6.95;4.50;;;;;;;;;;6175156;28;20514;-71
2021/07/29 16:21:18;;;;;;;7.17;4.90;;;;;;;;;;6168158;28;20050;-70
2021/07/29 16:24:20;;;;;;;7.78;4.90;;;;;;;;;;6182755;28;20470;-69
2021/07/29 16:27:21;;;;;;;8.50;5.53;;;;;;;;;;6171399;28;20046;-69
2021/07/29 16:30:24;;;;;;;5.72;4.65;;;;;;;;;;6174587;28;20100;-72
2021/07/29 16:33:25;;;;;;;6.25;4.82;;;;;;;;;;6182283;28;20136;-70
2021/07/29 16:36:27;;;;;;;7.68;4.57;;;;;;;;;;6182943;28;20528;-68
2021/07/29 16:39:28;;;;;;;6.72;4.28;;;;;;;;;;6188255;28;20148;-69
2021/07/29 16:42:30;;;;;;;5.50;4.40;;;;;;;;;;6182159;28;20542;-69
2021/07/29 16:45:33;;;;;;;5.40;4.22;;;;;;;;;;6176493;28;20129;-71
2021/07/29 16:48:35;;;;;;;6.57;4.20;;;;;;;;;;6188507;28;20077;-68
2021/07/29 16:51:37;;;;;;;9.00;4.13;;;;;;;;;;6174925;28;20120;-69
2021/07/29 16:54:40;;;;;;;6.07;4.30;;;;;;;;;;6180091;28;20057;-67
2021/07/29 16:57:41;;;;;;;5.63;5.05;;;;;;;;;;6180492;28;20825;-67
2021/07/29 17:00:44;;;;;;;12.07;4.60;;;;;;;;;;6175796;28;20956;-69
2021/07/29 17:03:46;;;;;;;9.20;4.75;;;;;;;;;;6189209;28;20046;-66
2021/07/29 17:06:47;;;;;;;6.13;4.20;;;;;;;;;;6178784;28;20130;-67
2021/07/29 17:09:49;;;;;;;10.05;4.40;;;;;;;;;;6177157;28;20065;-66
2021/07/29 17:12:50;;;;;;;5.32;4.03;;;;;;;;;;6161137;28;20047;-67
2021/07/29 17:15:53;;;;;;;6.75;3.70;;;;;;;;;;6174569;28;20564;-70
2021/07/29 17:18:55;;;;;;;8.40;4.32;;;;;;;;;;6183418;28;20050;-67
2021/07/29 17:21:56;;;;;;;7.88;4.50;;;;;;;;;;6166036;28;20077;-68
2021/07/29 17:24:58;;;;;;;7.20;4.45;;;;;;;;;;6175450;28;20074;-68
2021/07/29 17:28:00;;;;;;;6.07;4.63;;;;;;;;;;6176085;28;20070;-67
2021/07/29 17:31:03;;;;;;;7.22;4.00;;;;;;;;;;6169075;28;20053;-71
2021/07/29 17:34:04;;;;;;;6.80;4.30;;;;;;;;;;6177464;28;20058;-67
2021/07/29 17:37:06;;;;;;;6.72;4.97;;;;;;;;;;6173991;28;20160;-67
2021/07/29 17:40:10;;;;;;;4.78;3.88;;;;;;;;;;6178750;28;20065;-70
2021/07/29 17:43:13;;;;;;;9.10;4.32;;;;;;;;;;6177852;28;20062;-68
2021/07/29 17:46:16;;;;;;;6.47;4.35;;;;;;;;;;6175972;28;20046;-67
2021/07/29 17:49:18;;;;;;;6.55;4.68;;;;;;;;;;6177732;28;20162;-67
2021/07/29 17:52:19;;;;;;;7.50;4.40;;;;;;;;;;6176346;28;20371;-67
2021/07/29 17:55:21;;;;;;;5.40;4.88;;;;;;;;;;6168933;28;20050;-70
2021/07/29 17:58:23;;;;;;;6.57;4.32;;;;;;;;;;6183442;28;20050;-67
2021/07/29 18:01:26;;;;;;;6.70;4.75;;;;;;;;;;6172761;28;20054;-68
2021/07/29 18:04:29;;;;;;;6.50;4.80;;;;;;;;;;6172098;28;20133;-68
2021/07/29 18:07:32;;;;;;;8.10;5.03;;;;;;;;;;6165262;28;20050;-68
2021/07/29 18:10:35;;;;;;;7.53;4.65;;;;;;;;;;6172877;28;20042;-69
2021/07/29 18:13:37;;;;;;;7.55;5.40;;;;;;;;;;6173298;28;20204;-68
2021/07/29 18:16:40;;;;;;;5.53;4.68;;;;;;;;;;6159445;28;20556;-68
2021/07/29 18:19:41;;;;;;;5.75;4.22;;;;;;;;;;6177486;28;20101;-68
2021/07/29 18:22:43;;;;;;;6.38;5.00;;;;;;;;;;6167905;28;20050;-68
2021/07/29 18:25:46;;;;;;;7.22;4.80;;;;;;;;;;6168797;28;20517;-68
2021/07/29 18:28:47;;;;;;;;;;;;;;;;;;6181636;28;20050;-68
2021/07/29 18:31:50;;;;;;;6.10;4.47;;;;;;;;;;6167680;28;19925;-68
2021/07/29 18:34:52;;;;;;;7.85;5.20;;;;;;;;;;6180069;28;20054;-67
2021/07/29 18:37:53;;;;;;;7.28;4.93;;;;;;;;;;6177565;28;20379;-68
2021/07/29 18:40:55;;;;;;;7.17;4.53;;;;;;;;;;6184536;28;20108;-68
2021/07/29 18:43:57;;;;;;;6.63;4.63;;;;;;;;;;6196836;28;20168;-68
2021/07/29 18:47:00;;;;;;;7.45;4.82;;;;;;;;;;6181460;28;20437;-66
2021/07/29 18:50:02;;;;;;;7.97;5.07;;;;;;;;;;6189785;28;20197;-67
2021/07/29 18:53:04;;;;;;;6.68;4.97;;;;;;;;;;6181594;28;20141;-67
2021/07/29 18:56:06;;;;;;;6.10;5.13;;;;;;;;;;6187955;28;20073;-67
2021/07/29 18:59:08;;;;;;;9.98;5.60;;;;;;;;;;6190936;28;20093;-66
2021/07/29 19:02:11;;;;;;;9.27;5.57;;;;;;;;;;6186032;28;20062;-67
2021/07/29 19:05:13;;;;;;;8.07;5.30;;;;;;;;;;6186469;28;20092;-68
2021/07/29 19:08:15;;;;;;;5.80;5.00;;;;;;;;;;6175028;28;20065;-68
2021/07/29 19:11:16;;;;;;;8.85;5.45;;;;;;;;;;6180430;28;20045;-69
2021/07/29 19:14:18;;;;;;;12.10;10.90;;;;;;;;;;6196493;28;20133;-67
2021/07/29 19:17:22;;;;;;;9.30;6.50;;;;;;;;;;6198811;23;20046;-74
2021/07/29 19:20:25;;;;;;;8.10;5.95;;;;;;;;;;6220199;28;20066;-74
2021/07/29 19:23:26;;;;;;;11.35;7.30;;;;;;;;;;6211290;28;20127;-70
2021/07/29 19:26:28;;;;;;;8.20;6.03;;;;;;;;;;6203567;28;20050;-69
2021/07/29 19:29:30;;;;;;;10.23;6.93;;;;;;;;;;6208969;28;20050;-71
2021/07/29 19:32:33;;;;;;;8.45;7.28;;;;;;;;;;6187290;28;20541;-74
2021/07/29 19:35:35;;;;;;;9.50;7.43;;;;;;;;;;6191659;28;20182;-71